createdAt,value
2023-03-29T00:02:38.162Z,100888.84
2023-03-29T00:05:41.418Z,100898.37
2023-03-29T00:08:46.190Z,100893.19
2023-03-29T00:11:48.455Z,100889.75
2023-03-29T00:14:50.558Z,100888.88
2023-03-29T00:17:53.347Z,100877.63
2023-03-29T00:20:56.948Z,100885.47
2023-03-29T00:23:59.776Z,100881.13
2023-03-29T00:27:01.993Z,100880.28
2023-03-29T00:30:06.535Z,100879.47
2023-03-29T00:33:08.852Z,100869.91
2023-03-29T00:36:12.709Z,100868.16
2023-03-29T00:39:15.036Z,100860.34
2023-03-29T00:42:17.737Z,100864.63
2023-03-29T00:45:25.404Z,100868.09
2023-03-29T00:56:14.359Z,100869.06
2023-03-29T00:59:22.428Z,100866.50
2023-03-29T01:02:28.977Z,100875.19
2023-03-29T01:05:38.105Z,100865.66
2023-03-29T01:08:54.818Z,100867.41
2023-03-29T01:12:08.753Z,100863.09
2023-03-29T01:15:19.479Z,100859.63
2023-03-29T01:18:22.243Z,100863.09
2023-03-29T01:21:33.605Z,100863.97
2023-03-29T01:24:53.972Z,100867.44
2023-03-29T01:28:04.260Z,100863.13
2023-03-29T01:31:17.303Z,100863.97
2023-03-29T01:34:37.581Z,100862.25
2023-03-29T01:37:49.612Z,100861.41
2023-03-29T01:40:52.204Z,100864.84
2023-03-29T01:44:03.499Z,100855.38
2023-03-29T01:47:15.119Z,100854.47
2023-03-29T01:50:35.572Z,100862.25
2023-03-29T01:54:05.108Z,100867.44
2023-03-29T01:57:10.543Z,100867.44
2023-03-29T02:00:16.807Z,100870.03
2023-03-29T02:03:23.184Z,100863.13
2023-03-29T02:06:27.882Z,100863.97
2023-03-29T02:09:30.931Z,100857.06
2023-03-29T02:12:34.191Z,100865.69
2023-03-29T02:15:36.521Z,100860.56
2023-03-29T02:18:44.223Z,100867.50
2023-03-29T02:22:08.489Z,100865.78
2023-03-29T02:25:10.847Z,100858.88
2023-03-29T02:28:13.679Z,100857.13
2023-03-29T02:31:35.250Z,100861.44
2023-03-29T02:34:53.733Z,100856.25
2023-03-29T02:37:57.761Z,100854.53
2023-03-29T02:41:01.631Z,100861.47
2023-03-29T02:44:07.890Z,100861.47
2023-03-29T02:47:19.512Z,100869.25
2023-03-29T02:50:23.169Z,100866.63
2023-03-29T02:53:33.967Z,100870.09
2023-03-29T02:56:43.868Z,100871.84
2023-03-29T02:59:46.397Z,100866.63
2023-03-29T03:02:49.079Z,100860.59
2023-03-29T03:05:52.629Z,100865.78
2023-03-29T03:08:55.153Z,100864.91
2023-03-29T03:11:57.331Z,100863.16
2023-03-29T03:14:59.785Z,100866.59
2023-03-29T03:18:03.880Z,100866.63
2023-03-29T03:21:06.401Z,100860.59
2023-03-29T03:24:08.552Z,100864.91
2023-03-29T03:27:10.837Z,100864.00
2023-03-29T03:30:13.639Z,100859.72
2023-03-29T03:33:16.024Z,100866.59
2023-03-29T03:36:18.479Z,100857.97
2023-03-29T03:39:20.978Z,100855.38
2023-03-29T03:42:23.866Z,100857.97
2023-03-29T03:45:26.204Z,100864.03
2023-03-29T03:48:28.638Z,100866.59
2023-03-29T03:51:39.808Z,100868.34
2023-03-29T03:54:43.370Z,100876.12
2023-03-29T03:57:45.577Z,100868.34
2023-03-29T04:00:49.341Z,100870.09
2023-03-29T04:03:51.613Z,100868.34
2023-03-29T04:06:54.001Z,100863.16
2023-03-29T04:17:12.417Z,100849.28
2023-03-29T04:20:15.125Z,100855.38
2023-03-29T04:23:17.924Z,100851.91
2023-03-29T04:26:20.118Z,100845.00
2023-03-29T04:29:22.450Z,100845.00
2023-03-29T04:32:25.012Z,100840.66
2023-03-29T04:35:27.386Z,100841.53
2023-03-29T04:43:23.865Z,100825.91
2023-03-29T04:50:04.596Z,100820.69
2023-03-29T04:53:08.166Z,100819.78
2023-03-29T04:56:10.380Z,100825.88
2023-03-29T04:59:12.814Z,100823.25
2023-03-29T05:02:15.038Z,100826.69
2023-03-29T05:05:17.473Z,100824.94
2023-03-29T05:08:20.067Z,100827.50
2023-03-29T05:11:24.660Z,100817.94
2023-03-29T05:14:29.175Z,100823.13
2023-03-29T05:17:32.168Z,100821.34
2023-03-29T05:20:34.475Z,100820.47
2023-03-29T05:23:36.692Z,100823.94
2023-03-29T05:27:06.923Z,100823.87
2023-03-29T05:30:09.801Z,100822.16
2023-03-29T05:33:12.473Z,100818.62
2023-03-29T05:36:16.743Z,100817.72
2023-03-29T05:39:44.016Z,100807.28
2023-03-29T05:42:46.248Z,100812.38
2023-03-29T05:45:48.848Z,100809.66
2023-03-29T05:48:51.273Z,100818.22
2023-03-29T05:51:57.210Z,100806.78
2023-03-29T05:54:59.406Z,100811.78
2023-03-29T05:58:02.559Z,100817.66
2023-03-29T06:01:05.413Z,100813.06
2023-03-29T06:04:07.937Z,100817.16
2023-03-29T06:07:15.266Z,100830.91
2023-03-29T06:10:18.634Z,100826.47
2023-03-29T06:13:22.566Z,100824.59
2023-03-29T06:16:26.082Z,100815.75
2023-03-29T06:19:28.372Z,100806.13
2023-03-29T06:22:46.883Z,100815.78
2023-03-29T06:29:26.772Z,100818.06
2023-03-29T06:32:29.113Z,100813.41
2023-03-29T06:35:31.296Z,100816.97
2023-03-29T06:38:34.180Z,100818.09
2023-03-29T06:41:36.386Z,100826.72
2023-03-29T06:44:38.621Z,100821.16
2023-03-29T06:47:41.306Z,100821.81
2023-03-29T06:50:43.605Z,100823.50
2023-03-29T06:53:46.440Z,100821.72
2023-03-29T06:56:48.952Z,100827.63
2023-03-29T06:59:51.163Z,100817.84
2023-03-29T07:02:54.536Z,100822.09
2023-03-29T07:06:09.876Z,100821.78
2023-03-29T07:09:13.071Z,100817.25
2023-03-29T07:12:15.487Z,100811.56
2023-03-29T07:15:18.142Z,100815.47
2023-03-29T07:18:20.470Z,100818.16
2023-03-29T07:21:23.071Z,100813.50
2023-03-29T07:24:25.359Z,100820.25
2023-03-29T07:27:27.688Z,100812.38
2023-03-29T07:30:32.156Z,100817.03
2023-03-29T07:33:35.388Z,100813.63
2023-03-29T07:36:40.840Z,100818.97
2023-03-29T07:39:43.289Z,100813.91
2023-03-29T07:42:46.970Z,100819.13
2023-03-29T07:45:49.342Z,100806.22
2023-03-29T07:48:52.376Z,100806.00
2023-03-29T07:51:55.198Z,100803.81
2023-03-29T07:54:57.674Z,100800.75
2023-03-29T07:57:59.994Z,100792.44
2023-03-29T08:01:02.551Z,100795.09
2023-03-29T08:04:05.109Z,100806.09
2023-03-29T08:07:07.600Z,100806.59
2023-03-29T08:10:12.371Z,100807.88
2023-03-29T08:13:14.638Z,100806.13
2023-03-29T08:16:16.885Z,100808.66
2023-03-29T08:19:19.185Z,100803.47
2023-03-29T08:22:22.183Z,100820.41
2023-03-29T08:25:24.467Z,100810.53
2023-03-29T08:28:26.831Z,100816.91
2023-03-29T08:31:29.149Z,100814.84
2023-03-29T08:34:32.022Z,100803.03
2023-03-29T08:37:34.210Z,100799.34
2023-03-29T08:40:37.397Z,100800.41
2023-03-29T08:43:52.084Z,100796.09
2023-03-29T08:46:54.253Z,100791.47
2023-03-29T08:49:58.183Z,100788.56
2023-03-29T08:53:06.092Z,100791.56
2023-03-29T08:56:15.603Z,100786.72
2023-03-29T08:59:23.451Z,100787.97
2023-03-29T09:02:28.714Z,100793.41
2023-03-29T09:05:35.887Z,100788.88
2023-03-29T09:08:49.870Z,100788.75
2023-03-29T09:12:01.969Z,100781.97
2023-03-29T09:15:08.813Z,100780.78
2023-03-29T09:18:20.222Z,100780.44
2023-03-29T09:21:34.830Z,100773.63
2023-03-29T09:24:52.902Z,100770.34
2023-03-29T09:28:36.138Z,100766.81
2023-03-29T09:31:44.623Z,100763.00
2023-03-29T09:34:59.922Z,100749.19
2023-03-29T09:38:04.185Z,100754.19
2023-03-29T09:41:32.418Z,100751.53
2023-03-29T09:44:48.181Z,100754.66
2023-03-29T09:48:13.619Z,100755.31
2023-03-29T09:51:17.964Z,100751.50
2023-03-29T09:54:20.294Z,100754.03
2023-03-29T09:57:22.525Z,100750.69
2023-03-29T10:00:25.199Z,100741.75
2023-03-29T10:03:29.930Z,100741.66
2023-03-29T10:06:32.835Z,100750.72
2023-03-29T10:09:35.792Z,100742.56
2023-03-29T10:12:38.079Z,100735.31
2023-03-29T10:15:40.290Z,100728.94
2023-03-29T10:18:43.300Z,100725.50
2023-03-29T10:21:49.145Z,100719.53
2023-03-29T10:24:53.422Z,100722.34
2023-03-29T10:28:04.217Z,100719.63
2023-03-29T10:31:08.398Z,100714.53
2023-03-29T10:34:15.372Z,100711.72
2023-03-29T10:37:19.705Z,100704.38
2023-03-29T10:40:27.985Z,100704.72
2023-03-29T10:43:37.726Z,100689.34
2023-03-29T10:46:44.330Z,100693.19
2023-03-29T10:49:53.220Z,100694.53
2023-03-29T10:52:57.329Z,100684.87
2023-03-29T10:56:21.197Z,100680.00
2023-03-29T10:59:29.558Z,100689.31
2023-03-29T11:02:45.246Z,100684.00
2023-03-29T11:06:11.430Z,100665.66
2023-03-29T11:09:14.352Z,100672.78
2023-03-29T11:12:44.583Z,100664.91
2023-03-29T11:16:01.934Z,100657.94
2023-03-29T11:19:58.579Z,100657.25
2023-03-29T11:23:22.391Z,100661.75
2023-03-29T11:26:47.443Z,100652.91
2023-03-29T11:29:58.771Z,100640.69
2023-03-29T11:33:20.830Z,100644.81
2023-03-29T11:36:39.129Z,100645.09
2023-03-29T11:40:00.510Z,100637.06
2023-03-29T11:43:06.061Z,100636.56
2023-03-29T11:46:15.092Z,100636.84
2023-03-29T11:49:37.155Z,100630.47
2023-03-29T11:52:51.227Z,100632.16
2023-03-29T11:55:56.042Z,100614.75
2023-03-29T11:59:05.530Z,100627.44
2023-03-29T12:02:20.251Z,100626.38
2023-03-29T12:05:28.312Z,100623.00
2023-03-29T12:08:46.005Z,100621.38
2023-03-29T12:12:18.025Z,100618.50
2023-03-29T12:15:25.030Z,100613.09
2023-03-29T12:18:48.743Z,100580.41
2023-03-29T12:21:54.389Z,100586.16
2023-03-29T12:24:57.856Z,100576.47
2023-03-29T12:27:59.976Z,100568.87
2023-03-29T12:31:02.250Z,100569.09
2023-03-29T12:34:10.223Z,100577.53
2023-03-29T12:37:39.403Z,100575.50
2023-03-29T12:40:47.289Z,100575.59
2023-03-29T12:43:50.738Z,100581.78
2023-03-29T12:46:59.472Z,100586.13
2023-03-29T12:50:02.067Z,100586.28
2023-03-29T12:53:26.439Z,100580.56
2023-03-29T12:56:54.693Z,100573.28
2023-03-29T12:59:57.281Z,100571.41
2023-03-29T13:03:29.352Z,100567.66
2023-03-29T13:06:34.696Z,100574.22
2023-03-29T13:09:53.699Z,100562.87
2023-03-29T13:12:56.354Z,100551.94
2023-03-29T13:16:14.661Z,100557.59
2023-03-29T13:19:41.952Z,100562.00
2023-03-29T13:23:06.361Z,100559.50
2023-03-29T13:26:49.789Z,100561.63
2023-03-29T13:30:29.736Z,100553.06
2023-03-29T13:33:55.559Z,100548.63
2023-03-29T13:37:09.074Z,100549.63
2023-03-29T13:40:40.651Z,100525.81
2023-03-29T13:43:46.249Z,100515.09
2023-03-29T13:46:49.767Z,100524.94
2023-03-29T13:49:56.545Z,100532.81
2023-03-29T13:53:02.349Z,100534.66
2023-03-29T13:56:08.467Z,100539.41
2023-03-29T13:59:21.094Z,100528.28
2023-03-29T14:02:40.891Z,100542.72
2023-03-29T14:05:49.193Z,100539.31
2023-03-29T14:08:52.518Z,100536.03
2023-03-29T14:11:54.769Z,100538.66
2023-03-29T14:15:01.510Z,100535.56
2023-03-29T14:18:04.011Z,100531.94
2023-03-29T14:21:07.522Z,100536.50
2023-03-29T14:24:20.124Z,100534.38
2023-03-29T14:27:22.382Z,100520.28
2023-03-29T14:30:29.387Z,100522.66
2023-03-29T14:33:38.178Z,100520.59
2023-03-29T14:36:40.842Z,100512.28
2023-03-29T14:39:43.382Z,100508.00
2023-03-29T14:42:48.217Z,100508.84
2023-03-29T14:45:50.840Z,100507.38
2023-03-29T14:48:54.849Z,100490.91
2023-03-29T14:51:57.567Z,100485.56
2023-03-29T14:55:02.416Z,100489.91
2023-03-29T14:58:20.076Z,100488.19
2023-03-29T15:01:25.071Z,100467.28
2023-03-29T15:04:37.653Z,100467.19
2023-03-29T15:07:43.762Z,100481.37
2023-03-29T15:10:46.914Z,100467.97
2023-03-29T15:13:55.653Z,100473.16
2023-03-29T15:17:03.935Z,100469.72
2023-03-29T15:20:12.893Z,100452.84
2023-03-29T15:23:15.010Z,100456.19
2023-03-29T15:26:46.553Z,100465.03
2023-03-29T15:29:48.724Z,100467.72
2023-03-29T15:32:53.357Z,100470.22
2023-03-29T15:35:55.822Z,100466.78
2023-03-29T15:38:59.435Z,100454.69
2023-03-29T15:42:01.720Z,100448.62
2023-03-29T15:45:07.788Z,100453.31
2023-03-29T15:48:15.812Z,100442.59
2023-03-29T15:51:18.597Z,100448.03
2023-03-29T15:54:24.999Z,100441.34
2023-03-29T15:57:27.301Z,100430.81
2023-03-29T16:00:29.655Z,100429.38
2023-03-29T16:03:32.320Z,100433.03
2023-03-29T16:06:35.216Z,100444.34
2023-03-29T16:09:38.028Z,100432.81
2023-03-29T16:12:40.804Z,100435.28
2023-03-29T16:15:43.635Z,100437.00
2023-03-29T16:18:45.963Z,100433.44
2023-03-29T16:21:49.428Z,100431.50
2023-03-29T16:24:52.078Z,100426.44
2023-03-29T16:27:54.690Z,100422.19
2023-03-29T16:30:56.951Z,100422.03
2023-03-29T16:33:59.347Z,100429.87
2023-03-29T16:37:01.702Z,100414.09
2023-03-29T16:40:07.500Z,100402.87
2023-03-29T16:43:16.426Z,100409.16
2023-03-29T16:46:18.784Z,100410.03
2023-03-29T16:49:21.806Z,100414.50
2023-03-29T16:52:24.058Z,100411.88
2023-03-29T16:55:26.246Z,100414.50
2023-03-29T16:58:29.111Z,100406.75
2023-03-29T17:01:31.678Z,100407.69
2023-03-29T17:04:34.188Z,100405.16
2023-03-29T17:07:36.667Z,100411.28
2023-03-29T17:10:42.721Z,100406.25
2023-03-29T17:13:44.946Z,100395.06
2023-03-29T17:16:47.202Z,100410.25
2023-03-29T17:19:50.066Z,100417.44
2023-03-29T17:22:54.502Z,100415.94
2023-03-29T17:25:57.396Z,100415.81
2023-03-29T17:28:59.554Z,100421.06
2023-03-29T17:32:01.951Z,100412.00
2023-03-29T17:35:04.957Z,100413.91
2023-03-29T17:38:08.499Z,100422.72
2023-03-29T17:41:11.260Z,100430.88
2023-03-29T17:44:13.939Z,100424.88
2023-03-29T17:47:16.730Z,100426.81
2023-03-29T17:50:19.267Z,100432.12
2023-03-29T17:53:21.717Z,100432.12
2023-03-29T17:56:26.389Z,100441.75
2023-03-29T17:59:29.445Z,100439.34
2023-03-29T18:02:32.355Z,100447.66
2023-03-29T18:05:36.024Z,100453.91
2023-03-29T18:08:39.148Z,100459.16
2023-03-29T18:11:42.156Z,100450.50
2023-03-29T18:14:45.238Z,100457.56
2023-03-29T18:17:47.933Z,100459.31
2023-03-29T18:20:50.785Z,100448.91
2023-03-29T18:23:55.548Z,100459.59
2023-03-29T18:26:59.845Z,100456.19
2023-03-29T18:30:04.019Z,100456.25
2023-03-29T18:33:07.173Z,100463.81
2023-03-29T18:36:13.216Z,100476.84
2023-03-29T18:39:17.121Z,100469.94
2023-03-29T18:42:22.489Z,100463.87
2023-03-29T18:45:27.022Z,100461.50
2023-03-29T18:48:30.527Z,100455.47
2023-03-29T18:51:35.027Z,100468.56
2023-03-29T18:54:39.856Z,100482.66
2023-03-29T18:57:42.945Z,100477.53
2023-03-29T19:00:45.670Z,100466.19
2023-03-29T19:03:49.193Z,100463.69
2023-03-29T19:06:52.623Z,100472.53
2023-03-29T19:09:56.195Z,100475.06
2023-03-29T19:12:58.765Z,100469.03
2023-03-29T19:16:02.302Z,100468.69
2023-03-29T19:19:08.010Z,100473.97
2023-03-29T19:22:11.660Z,100464.22
2023-03-29T19:25:17.910Z,100466.00
2023-03-29T19:28:21.921Z,100466.16
2023-03-29T19:31:24.748Z,100461.00
2023-03-29T19:34:28.361Z,100472.31
2023-03-29T19:37:31.343Z,100467.78
2023-03-29T19:40:34.536Z,100463.44
2023-03-29T19:43:37.362Z,100466.06
2023-03-29T19:46:41.095Z,100457.31
2023-03-29T19:49:46.916Z,100453.59
2023-03-29T19:52:51.015Z,100453.75
2023-03-29T19:55:53.736Z,100444.22
2023-03-29T19:58:56.664Z,100446.13
2023-03-29T20:01:59.890Z,100443.03
2023-03-29T20:05:03.265Z,100442.47
2023-03-29T20:08:08.169Z,100442.56
2023-03-29T20:11:11.709Z,100431.88
2023-03-29T20:14:14.710Z,100423.84
2023-03-29T20:17:17.346Z,100426.50
2023-03-29T20:20:23.593Z,100422.94
2023-03-29T20:23:26.286Z,100417.66
2023-03-29T20:26:29.277Z,100423.00
2023-03-29T20:29:34.463Z,100422.22
2023-03-29T20:32:37.544Z,100421.69
2023-03-29T20:35:39.766Z,100420.91
2023-03-29T20:38:42.212Z,100419.41
2023-03-29T20:41:47.986Z,100425.91
2023-03-29T20:44:51.567Z,100429.53
2023-03-29T20:47:58.023Z,100426.25
2023-03-29T20:51:03.240Z,100427.44
2023-03-29T20:54:07.785Z,100438.16
2023-03-29T20:57:14.291Z,100436.50
2023-03-29T21:00:17.172Z,100442.91
2023-03-29T21:03:19.766Z,100432.50
2023-03-29T21:06:24.486Z,100433.47
2023-03-29T21:09:26.685Z,100438.88
2023-03-29T21:12:28.869Z,100438.19
2023-03-29T21:15:34.314Z,100434.00
2023-03-29T21:18:38.862Z,100437.56
2023-03-29T21:21:42.866Z,100435.81
2023-03-29T21:24:45.044Z,100430.56
2023-03-29T21:27:47.505Z,100429.66
2023-03-29T21:30:50.168Z,100428.88
2023-03-29T21:33:53.334Z,100431.50
2023-03-29T21:36:55.580Z,100426.34
2023-03-29T21:39:58.093Z,100418.59
2023-03-29T21:43:00.679Z,100411.78
2023-03-29T21:46:02.862Z,100410.66
2023-03-29T21:49:05.049Z,100406.44
2023-03-29T21:52:07.647Z,100402.09
2023-03-29T21:55:09.857Z,100400.44
2023-03-29T21:58:12.041Z,100395.06
2023-03-29T22:01:14.257Z,100401.38
2023-03-29T22:04:25.818Z,100391.97
2023-03-29T22:07:35.378Z,100387.28
2023-03-29T22:10:41.485Z,100382.72
2023-03-29T22:13:44.660Z,100388.00
2023-03-29T22:16:47.389Z,100390.25
2023-03-29T22:19:49.816Z,100392.47
2023-03-29T22:22:52.137Z,100399.63
2023-03-29T22:25:54.357Z,100396.81
2023-03-29T22:28:58.373Z,100384.91
2023-03-29T22:32:01.249Z,100389.25
2023-03-29T22:35:04.032Z,100378.53
2023-03-29T22:38:06.174Z,100379.37
2023-03-29T22:41:08.730Z,100377.59
2023-03-29T22:44:11.873Z,100359.16
2023-03-29T22:47:14.270Z,100355.84
2023-03-29T22:50:16.556Z,100375.81
2023-03-29T22:53:18.747Z,100362.81
2023-03-29T22:56:22.108Z,100368.16
2023-03-29T22:59:25.529Z,100378.41
2023-03-29T23:02:28.038Z,100354.00
2023-03-29T23:05:30.397Z,100356.03
2023-03-29T23:08:33.956Z,100359.59
2023-03-29T23:11:36.488Z,100348.16
2023-03-29T23:14:42.738Z,100347.62
2023-03-29T23:17:45.074Z,100347.09
2023-03-29T23:20:49.017Z,100345.75
2023-03-29T23:23:51.780Z,100346.94
2023-03-29T23:26:55.396Z,100353.97
2023-03-29T23:29:59.741Z,100355.94
2023-03-29T23:33:02.762Z,100360.62
2023-03-29T23:36:07.823Z,100352.53
2023-03-29T23:39:10.160Z,100364.00
2023-03-29T23:42:12.567Z,100370.62
2023-03-29T23:45:18.456Z,100366.53
2023-03-29T23:48:21.122Z,100358.72
2023-03-29T23:51:28.998Z,100346.31
2023-03-29T23:54:35.439Z,100349.72
2023-03-29T23:57:37.637Z,100341.84
